Airfield :
LOGIN :

Register | Disclaimer

   EN    FR    IT 

 










Legend :    VFR   Marginal VFR   IFR   Intensive IFR   Very Intensive IFR
Visi :
Ceiling :
>= 8 km
>= 3000ft
5 to 8 km
1000 to 3000 ft
1500m to 5 km
500 to 1000 ft
800 to 1500m
200 to 500 ft
< 800m
< 200 ft
Symbols :   Thunderstorms  Fog  Heavy snow  Heavy precipitations  Wind > 20 kt
SIGMETs :     Misc.  Thunderstorms  Icing  Turbulence  Mountain Waves  Volcanic Ashes






- Airport Elevation : 45 ft
- IATA code : CEG


EGNR - Hawarden Chester

CURRENT METAR :
  • 191950Z 24007KT CAVOK 22/16 Q1012

EXPIRED METARs :
  • 191920Z VRB01KT CAVOK 24/15 Q1012
  • 191850Z 33005KT CAVOK 24/16 Q1012
  • 191820Z 30005KT 270V330 CAVOK 25/16 Q1012
  • 191750Z 28005KT 240V310 CAVOK 25/13 Q1012
  • 191720Z 27006KT 240V330 CAVOK 26/13 Q1012
  • 191650Z 30005KT 250V360 CAVOK 26/16 Q1012
  • 191620Z 27005KT 210V330 9999 FEW025 25/16 Q1013

Expired Forecast.



MET'MAP, your aeronautical weather chart ! - Copyright ORBIFLY December 2007 - Disclaimer

ORBIFLY MET'MAP TEAM :

Programming & Development : Alexandra Zaïnal
Original concept : Baudouin d'Aumeries
Technical & hardware support : Manuel Goepfert
Assistance : Marc-Olivier Méhu




SOURCES & CREDITS :

   NOAA